sensor_id;sensor_type;location;lat;lon;timestamp;temperature;humidity
5705;DHT22;2877;48.238;11.160;2023-05-07T00:01:44;11.30;99.90
5705;DHT22;2877;48.238;11.160;2023-05-07T00:04:10;11.30;99.90
5705;DHT22;2877;48.238;11.160;2023-05-07T00:06:36;11.30;99.90
5705;DHT22;2877;48.238;11.160;2023-05-07T00:09:01;11.40;99.90
5705;DHT22;2877;48.238;11.160;2023-05-07T00:11:28;11.30;99.90
5705;DHT22;2877;48.238;11.160;2023-05-07T00:13:54;11.40;99.90
5705;DHT22;2877;48.238;11.160;2023-05-07T00:16:19;11.40;99.90
5705;DHT22;2877;48.238;11.160;2023-05-07T00:18:45;11.40;99.90
5705;DHT22;2877;48.238;11.160;2023-05-07T00:21:10;11.30;99.90
5705;DHT22;2877;48.238;11.160;2023-05-07T00:23:36;11.30;99.90
5705;DHT22;2877;48.238;11.160;2023-05-07T00:26:03;11.20;99.90
5705;DHT22;2877;48.238;11.160;2023-05-07T00:28:28;11.20;99.90
5705;DHT22;2877;48.238;11.160;2023-05-07T00:30:54;11.30;99.90
5705;DHT22;2877;48.238;11.160;2023-05-07T00:33:20;11.30;99.90
5705;DHT22;2877;48.238;11.160;2023-05-07T00:35:46;11.20;99.90
5705;DHT22;2877;48.238;11.160;2023-05-07T00:38:11;11.10;99.90
5705;DHT22;2877;48.238;11.160;2023-05-07T00:40:37;11.20;99.90
5705;DHT22;2877;48.238;11.160;2023-05-07T00:43:02;11.20;99.90
5705;DHT22;2877;48.238;11.160;2023-05-07T00:45:29;11.30;99.90
5705;DHT22;2877;48.238;11.160;2023-05-07T00:47:55;11.20;99.90
5705;DHT22;2877;48.238;11.160;2023-05-07T00:50:22;11.10;99.90
5705;DHT22;2877;48.238;11.160;2023-05-07T00:52:48;11.10;99.90
5705;DHT22;2877;48.238;11.160;2023-05-07T00:55:14;11.00;99.90
5705;DHT22;2877;48.238;11.160;2023-05-07T00:57:40;11.10;99.90
5705;DHT22;2877;48.238;11.160;2023-05-07T01:00:07;11.10;99.90
5705;DHT22;2877;48.238;11.160;2023-05-07T01:02:35;11.00;99.90
5705;DHT22;2877;48.238;11.160;2023-05-07T01:05:02;11.00;99.90
5705;DHT22;2877;48.238;11.160;2023-05-07T01:07:29;11.00;99.90
5705;DHT22;2877;48.238;11.160;2023-05-07T01:09:56;10.90;99.90
5705;DHT22;2877;48.238;11.160;2023-05-07T01:12:22;10.90;99.90
5705;DHT22;2877;48.238;11.160;2023-05-07T01:14:48;11.00;99.90
5705;DHT22;2877;48.238;11.160;2023-05-07T01:17:15;11.10;99.90
5705;DHT22;2877;48.238;11.160;2023-05-07T01:19:41;11.10;99.90
5705;DHT22;2877;48.238;11.160;2023-05-07T01:22:10;11.00;99.90
5705;DHT22;2877;48.238;11.160;2023-05-07T01:24:41;11.00;99.90
5705;DHT22;2877;48.238;11.160;2023-05-07T01:27:07;11.00;99.90
5705;DHT22;2877;48.238;11.160;2023-05-07T01:29:33;10.90;99.90
5705;DHT22;2877;48.238;11.160;2023-05-07T01:32:00;10.90;99.90
5705;DHT22;2877;48.238;11.160;2023-05-07T01:34:28;10.90;99.90
5705;DHT22;2877;48.238;11.160;2023-05-07T01:36:54;10.90;99.90
5705;DHT22;2877;48.238;11.160;2023-05-07T01:39:23;10.90;99.90
5705;DHT22;2877;48.238;11.160;2023-05-07T01:41:49;10.80;99.90
5705;DHT22;2877;48.238;11.160;2023-05-07T01:44:15;10.80;99.90
5705;DHT22;2877;48.238;11.160;2023-05-07T01:46:41;10.70;99.90
5705;DHT22;2877;48.238;11.160;2023-05-07T01:49:07;10.70;99.90
5705;DHT22;2877;48.238;11.160;2023-05-07T01:51:33;10.70;99.90
5705;DHT22;2877;48.238;11.160;2023-05-07T01:53:59;10.70;99.90
5705;DHT22;2877;48.238;11.160;2023-05-07T01:56:25;10.80;99.90
5705;DHT22;2877;48.238;11.160;2023-05-07T01:58:51;10.80;99.90
5705;DHT22;2877;48.238;11.160;2023-05-07T02:01:17;10.70;99.90
5705;DHT22;2877;48.238;11.160;2023-05-07T02:03:43;10.60;99.90
5705;DHT22;2877;48.238;11.160;2023-05-07T02:06:09;10.60;99.90
5705;DHT22;2877;48.238;11.160;2023-05-07T02:08:35;10.60;99.90
5705;DHT22;2877;48.238;11.160;2023-05-07T02:11:01;10.70;99.90
5705;DHT22;2877;48.238;11.160;2023-05-07T02:13:29;10.70;99.90
5705;DHT22;2877;48.238;11.160;2023-05-07T02:15:55;10.70;99.90
5705;DHT22;2877;48.238;11.160;2023-05-07T02:18:21;10.70;99.90
5705;DHT22;2877;48.238;11.160;2023-05-07T02:20:46;10.60;99.90
5705;DHT22;2877;48.238;11.160;2023-05-07T02:23:12;10.60;99.90
5705;DHT22;2877;48.238;11.160;2023-05-07T02:25:37;10.70;99.90
5705;DHT22;2877;48.238;11.160;2023-05-07T02:28:03;10.60;99.90
5705;DHT22;2877;48.238;11.160;2023-05-07T02:30:29;10.60;99.90
5705;DHT22;2877;48.238;11.160;2023-05-07T02:32:54;10.60;99.90
5705;DHT22;2877;48.238;11.160;2023-05-07T02:35:20;10.60;99.90
5705;DHT22;2877;48.238;11.160;2023-05-07T02:37:45;10.70;99.90
5705;DHT22;2877;48.238;11.160;2023-05-07T02:40:11;10.60;99.90
5705;DHT22;2877;48.238;11.160;2023-05-07T02:42:37;10.60;99.90
5705;DHT22;2877;48.238;11.160;2023-05-07T02:45:03;10.60;99.90
5705;DHT22;2877;48.238;11.160;2023-05-07T02:47:29;10.60;99.90
5705;DHT22;2877;48.238;11.160;2023-05-07T02:49:55;10.50;99.90
5705;DHT22;2877;48.238;11.160;2023-05-07T02:52:21;10.50;99.90
5705;DHT22;2877;48.238;11.160;2023-05-07T02:54:47;10.50;99.90
5705;DHT22;2877;48.238;11.160;2023-05-07T02:57:12;10.50;99.90
5705;DHT22;2877;48.238;11.160;2023-05-07T02:59:38;10.50;99.90
5705;DHT22;2877;48.238;11.160;2023-05-07T03:02:03;10.50;99.90
5705;DHT22;2877;48.238;11.160;2023-05-07T03:04:29;10.50;99.90
5705;DHT22;2877;48.238;11.160;2023-05-07T03:06:54;10.50;99.90
5705;DHT22;2877;48.238;11.160;2023-05-07T03:09:20;10.50;99.90
5705;DHT22;2877;48.238;11.160;2023-05-07T03:11:46;10.40;99.90
5705;DHT22;2877;48.238;11.160;2023-05-07T03:14:11;10.40;99.90
5705;DHT22;2877;48.238;11.160;2023-05-07T03:16:37;10.30;99.90
5705;DHT22;2877;48.238;11.160;2023-05-07T03:19:03;10.30;99.90
5705;DHT22;2877;48.238;11.160;2023-05-07T03:21:28;10.30;99.90
5705;DHT22;2877;48.238;11.160;2023-05-07T03:23:55;10.20;99.90
5705;DHT22;2877;48.238;11.160;2023-05-07T03:26:21;10.20;99.90
5705;DHT22;2877;48.238;11.160;2023-05-07T03:28:47;10.20;99.90
5705;DHT22;2877;48.238;11.160;2023-05-07T03:31:12;10.10;99.90
5705;DHT22;2877;48.238;11.160;2023-05-07T03:33:55;10.10;99.90
5705;DHT22;2877;48.238;11.160;2023-05-07T03:36:22;10.00;99.90
5705;DHT22;2877;48.238;11.160;2023-05-07T03:38:48;10.00;99.90
5705;DHT22;2877;48.238;11.160;2023-05-07T03:41:14;10.00;99.90
5705;DHT22;2877;48.238;11.160;2023-05-07T03:43:40;10.00;99.90
5705;DHT22;2877;48.238;11.160;2023-05-07T03:46:05;10.00;99.90
5705;DHT22;2877;48.238;11.160;2023-05-07T03:48:31;10.00;99.90
5705;DHT22;2877;48.238;11.160;2023-05-07T03:50:58;9.90;99.90
5705;DHT22;2877;48.238;11.160;2023-05-07T03:53:23;9.90;99.90
5705;DHT22;2877;48.238;11.160;2023-05-07T03:55:49;9.90;99.90
5705;DHT22;2877;48.238;11.160;2023-05-07T03:58:15;9.90;99.90
5705;DHT22;2877;48.238;11.160;2023-05-07T04:00:41;9.90;99.90
5705;DHT22;2877;48.238;11.160;2023-05-07T04:03:07;10.00;99.90
5705;DHT22;2877;48.238;11.160;2023-05-07T04:05:32;10.00;99.90
5705;DHT22;2877;48.238;11.160;2023-05-07T04:07:59;9.90;99.90
5705;DHT22;2877;48.238;11.160;2023-05-07T04:10:25;9.90;99.90
5705;DHT22;2877;48.238;11.160;2023-05-07T04:12:50;9.90;99.90
5705;DHT22;2877;48.238;11.160;2023-05-07T04:15:16;9.80;99.90
5705;DHT22;2877;48.238;11.160;2023-05-07T04:17:42;9.80;99.90
5705;DHT22;2877;48.238;11.160;2023-05-07T04:20:14;9.90;99.90
5705;DHT22;2877;48.238;11.160;2023-05-07T04:22:40;9.90;99.90
5705;DHT22;2877;48.238;11.160;2023-05-07T04:25:06;9.90;99.90
5705;DHT22;2877;48.238;11.160;2023-05-07T04:27:31;9.90;99.90
5705;DHT22;2877;48.238;11.160;2023-05-07T04:29:57;9.90;99.90
5705;DHT22;2877;48.238;11.160;2023-05-07T04:32:23;9.90;99.90
5705;DHT22;2877;48.238;11.160;2023-05-07T04:34:50;9.90;99.90
5705;DHT22;2877;48.238;11.160;2023-05-07T04:37:15;9.90;99.90
5705;DHT22;2877;48.238;11.160;2023-05-07T04:39:41;10.00;99.90
5705;DHT22;2877;48.238;11.160;2023-05-07T04:42:06;10.00;99.90
5705;DHT22;2877;48.238;11.160;2023-05-07T04:44:34;10.10;99.90
5705;DHT22;2877;48.238;11.160;2023-05-07T04:47:02;10.20;99.90
5705;DHT22;2877;48.238;11.160;2023-05-07T04:49:27;10.20;99.90
5705;DHT22;2877;48.238;11.160;2023-05-07T04:51:53;10.30;99.90
5705;DHT22;2877;48.238;11.160;2023-05-07T04:54:18;10.30;99.90
5705;DHT22;2877;48.238;11.160;2023-05-07T04:56:44;10.30;99.90
5705;DHT22;2877;48.238;11.160;2023-05-07T04:59:10;10.40;99.90
5705;DHT22;2877;48.238;11.160;2023-05-07T05:01:35;10.50;99.90
5705;DHT22;2877;48.238;11.160;2023-05-07T05:04:01;10.50;99.90
5705;DHT22;2877;48.238;11.160;2023-05-07T05:06:26;10.60;99.90
5705;DHT22;2877;48.238;11.160;2023-05-07T05:08:52;10.70;99.90
5705;DHT22;2877;48.238;11.160;2023-05-07T05:11:17;10.80;99.90
5705;DHT22;2877;48.238;11.160;2023-05-07T05:13:43;11.00;99.90
5705;DHT22;2877;48.238;11.160;2023-05-07T05:16:08;11.10;99.90
5705;DHT22;2877;48.238;11.160;2023-05-07T05:18:34;11.20;99.90
5705;DHT22;2877;48.238;11.160;2023-05-07T05:21:00;11.20;99.90
5705;DHT22;2877;48.238;11.160;2023-05-07T05:23:25;11.20;99.90
5705;DHT22;2877;48.238;11.160;2023-05-07T05:25:58;11.20;99.90
5705;DHT22;2877;48.238;11.160;2023-05-07T05:28:24;11.30;99.90
5705;DHT22;2877;48.238;11.160;2023-05-07T05:30:50;11.30;99.90
5705;DHT22;2877;48.238;11.160;2023-05-07T05:33:15;11.40;99.90
5705;DHT22;2877;48.238;11.160;2023-05-07T05:35:41;11.60;99.90
5705;DHT22;2877;48.238;11.160;2023-05-07T05:38:07;11.70;99.90
5705;DHT22;2877;48.238;11.160;2023-05-07T05:40:33;11.90;99.90
5705;DHT22;2877;48.238;11.160;2023-05-07T05:42:59;12.00;99.90
5705;DHT22;2877;48.238;11.160;2023-05-07T05:45:24;12.20;99.90
5705;DHT22;2877;48.238;11.160;2023-05-07T05:47:50;12.40;99.90
5705;DHT22;2877;48.238;11.160;2023-05-07T05:50:16;12.60;99.90
5705;DHT22;2877;48.238;11.160;2023-05-07T05:52:41;12.80;99.90
5705;DHT22;2877;48.238;11.160;2023-05-07T05:55:07;13.10;99.90
5705;DHT22;2877;48.238;11.160;2023-05-07T05:57:33;13.30;99.90
5705;DHT22;2877;48.238;11.160;2023-05-07T06:00:00;13.40;99.90
5705;DHT22;2877;48.238;11.160;2023-05-07T06:02:26;13.60;99.90
5705;DHT22;2877;48.238;11.160;2023-05-07T06:04:51;13.80;99.90
5705;DHT22;2877;48.238;11.160;2023-05-07T06:07:17;14.00;99.90
5705;DHT22;2877;48.238;11.160;2023-05-07T06:09:42;14.20;99.90
5705;DHT22;2877;48.238;11.160;2023-05-07T06:12:08;14.40;99.90
5705;DHT22;2877;48.238;11.160;2023-05-07T06:14:33;14.50;99.90
5705;DHT22;2877;48.238;11.160;2023-05-07T06:16:59;14.60;99.90
5705;DHT22;2877;48.238;11.160;2023-05-07T06:19:24;14.80;99.90
5705;DHT22;2877;48.238;11.160;2023-05-07T06:21:52;14.90;99.90
5705;DHT22;2877;48.238;11.160;2023-05-07T06:24:17;15.00;99.90
5705;DHT22;2877;48.238;11.160;2023-05-07T06:26:43;15.20;99.90
5705;DHT22;2877;48.238;11.160;2023-05-07T06:29:08;15.30;99.90
5705;DHT22;2877;48.238;11.160;2023-05-07T06:31:34;15.50;99.90
5705;DHT22;2877;48.238;11.160;2023-05-07T06:33:59;15.50;99.90
5705;DHT22;2877;48.238;11.160;2023-05-07T06:36:27;15.70;99.90
5705;DHT22;2877;48.238;11.160;2023-05-07T06:38:53;15.70;99.90
5705;DHT22;2877;48.238;11.160;2023-05-07T06:41:18;15.80;99.90
5705;DHT22;2877;48.238;11.160;2023-05-07T06:43:44;15.80;99.90
5705;DHT22;2877;48.238;11.160;2023-05-07T06:46:10;15.80;99.90
5705;DHT22;2877;48.238;11.160;2023-05-07T06:48:35;15.90;99.90
5705;DHT22;2877;48.238;11.160;2023-05-07T06:51:01;15.90;99.90
5705;DHT22;2877;48.238;11.160;2023-05-07T06:53:26;16.10;99.90
5705;DHT22;2877;48.238;11.160;2023-05-07T06:55:53;16.20;99.90
5705;DHT22;2877;48.238;11.160;2023-05-07T06:58:19;16.20;99.90
5705;DHT22;2877;48.238;11.160;2023-05-07T07:00:44;16.30;99.90
5705;DHT22;2877;48.238;11.160;2023-05-07T07:03:11;16.40;99.90
5705;DHT22;2877;48.238;11.160;2023-05-07T07:05:36;16.60;99.90
5705;DHT22;2877;48.238;11.160;2023-05-07T07:08:02;16.70;99.90
5705;DHT22;2877;48.238;11.160;2023-05-07T07:10:28;16.80;99.90
5705;DHT22;2877;48.238;11.160;2023-05-07T07:12:53;16.90;99.90
5705;DHT22;2877;48.238;11.160;2023-05-07T07:15:19;17.10;99.90
5705;DHT22;2877;48.238;11.160;2023-05-07T07:17:46;17.10;99.90
5705;DHT22;2877;48.238;11.160;2023-05-07T07:20:11;17.30;99.90
5705;DHT22;2877;48.238;11.160;2023-05-07T07:22:37;17.40;99.90
5705;DHT22;2877;48.238;11.160;2023-05-07T07:25:03;17.60;99.90
5705;DHT22;2877;48.238;11.160;2023-05-07T07:27:28;17.70;99.90
5705;DHT22;2877;48.238;11.160;2023-05-07T07:29:54;17.80;99.90
5705;DHT22;2877;48.238;11.160;2023-05-07T07:32:19;17.90;99.90
5705;DHT22;2877;48.238;11.160;2023-05-07T07:34:45;17.90;99.90
5705;DHT22;2877;48.238;11.160;2023-05-07T07:37:11;18.00;99.90
5705;DHT22;2877;48.238;11.160;2023-05-07T07:39:37;18.10;99.90
5705;DHT22;2877;48.238;11.160;2023-05-07T07:42:06;18.10;99.90
5705;DHT22;2877;48.238;11.160;2023-05-07T07:44:32;18.30;99.90
5705;DHT22;2877;48.238;11.160;2023-05-07T07:46:57;18.40;99.90
5705;DHT22;2877;48.238;11.160;2023-05-07T07:49:23;18.50;99.90
5705;DHT22;2877;48.238;11.160;2023-05-07T07:51:48;18.60;99.90
5705;DHT22;2877;48.238;11.160;2023-05-07T07:54:14;18.70;99.90
5705;DHT22;2877;48.238;11.160;2023-05-07T07:56:39;18.70;99.90
5705;DHT22;2877;48.238;11.160;2023-05-07T07:59:05;18.90;99.90
5705;DHT22;2877;48.238;11.160;2023-05-07T08:01:31;19.00;99.90
5705;DHT22;2877;48.238;11.160;2023-05-07T08:03:56;19.10;99.90
5705;DHT22;2877;48.238;11.160;2023-05-07T08:06:24;19.30;99.90
5705;DHT22;2877;48.238;11.160;2023-05-07T08:08:51;19.40;99.90
5705;DHT22;2877;48.238;11.160;2023-05-07T08:11:16;19.30;99.90
5705;DHT22;2877;48.238;11.160;2023-05-07T08:13:42;19.40;99.90
5705;DHT22;2877;48.238;11.160;2023-05-07T08:16:08;19.40;99.90
5705;DHT22;2877;48.238;11.160;2023-05-07T08:18:33;19.40;99.90
5705;DHT22;2877;48.238;11.160;2023-05-07T08:20:59;19.60;99.90
5705;DHT22;2877;48.238;11.160;2023-05-07T08:23:25;19.60;99.90
5705;DHT22;2877;48.238;11.160;2023-05-07T08:25:50;19.80;99.90
5705;DHT22;2877;48.238;11.160;2023-05-07T08:28:16;19.90;99.90
5705;DHT22;2877;48.238;11.160;2023-05-07T08:30:42;19.90;99.90
5705;DHT22;2877;48.238;11.160;2023-05-07T08:33:08;20.10;99.90
5705;DHT22;2877;48.238;11.160;2023-05-07T08:35:34;20.20;99.90
5705;DHT22;2877;48.238;11.160;2023-05-07T08:38:00;20.40;99.90
5705;DHT22;2877;48.238;11.160;2023-05-07T08:40:26;20.40;99.90
5705;DHT22;2877;48.238;11.160;2023-05-07T08:42:53;20.60;99.90
5705;DHT22;2877;48.238;11.160;2023-05-07T08:45:19;20.80;99.90
5705;DHT22;2877;48.238;11.160;2023-05-07T08:47:58;20.90;99.90
5705;DHT22;2877;48.238;11.160;2023-05-07T08:50:24;21.00;99.90
5705;DHT22;2877;48.238;11.160;2023-05-07T08:52:50;21.00;99.90
5705;DHT22;2877;48.238;11.160;2023-05-07T08:55:16;21.00;99.90
5705;DHT22;2877;48.238;11.160;2023-05-07T08:57:41;21.10;99.90
5705;DHT22;2877;48.238;11.160;2023-05-07T09:00:07;21.10;99.90
5705;DHT22;2877;48.238;11.160;2023-05-07T09:02:35;21.10;99.90
5705;DHT22;2877;48.238;11.160;2023-05-07T09:05:00;21.10;99.90
5705;DHT22;2877;48.238;11.160;2023-05-07T09:07:26;21.30;99.90
5705;DHT22;2877;48.238;11.160;2023-05-07T09:09:52;21.40;99.90
5705;DHT22;2877;48.238;11.160;2023-05-07T09:12:21;21.60;99.90
5705;DHT22;2877;48.238;11.160;2023-05-07T09:14:46;21.70;99.90
5705;DHT22;2877;48.238;11.160;2023-05-07T09:17:12;21.60;99.90
5705;DHT22;2877;48.238;11.160;2023-05-07T09:19:38;21.60;99.90
5705;DHT22;2877;48.238;11.160;2023-05-07T09:22:05;21.60;99.90
5705;DHT22;2877;48.238;11.160;2023-05-07T09:24:32;21.50;99.90
5705;DHT22;2877;48.238;11.160;2023-05-07T09:27:06;21.70;99.90
5705;DHT22;2877;48.238;11.160;2023-05-07T09:29:33;21.80;99.90
5705;DHT22;2877;48.238;11.160;2023-05-07T09:32:06;22.00;99.90
5705;DHT22;2877;48.238;11.160;2023-05-07T09:34:32;21.90;99.90
5705;DHT22;2877;48.238;11.160;2023-05-07T09:37:02;22.00;99.80
5705;DHT22;2877;48.238;11.160;2023-05-07T09:39:45;21.90;97.60
5705;DHT22;2877;48.238;11.160;2023-05-07T09:42:11;22.00;95.90
5705;DHT22;2877;48.238;11.160;2023-05-07T09:44:38;21.90;96.00
5705;DHT22;2877;48.238;11.160;2023-05-07T09:47:07;22.20;95.00
5705;DHT22;2877;48.238;11.160;2023-05-07T09:49:38;22.50;95.80
5705;DHT22;2877;48.238;11.160;2023-05-07T09:52:06;22.60;96.10
5705;DHT22;2877;48.238;11.160;2023-05-07T09:54:35;22.70;95.50
5705;DHT22;2877;48.238;11.160;2023-05-07T09:57:04;22.40;95.10
5705;DHT22;2877;48.238;11.160;2023-05-07T09:59:31;22.40;94.70
5705;DHT22;2877;48.238;11.160;2023-05-07T10:01:58;22.50;91.20
5705;DHT22;2877;48.238;11.160;2023-05-07T10:04:27;22.80;92.50
5705;DHT22;2877;48.238;11.160;2023-05-07T10:06:53;22.90;92.90
5705;DHT22;2877;48.238;11.160;2023-05-07T10:09:20;22.80;91.20
5705;DHT22;2877;48.238;11.160;2023-05-07T10:11:48;22.90;90.20
5705;DHT22;2877;48.238;11.160;2023-05-07T10:14:14;23.00;90.80
5705;DHT22;2877;48.238;11.160;2023-05-07T10:16:41;23.10;87.40
5705;DHT22;2877;48.238;11.160;2023-05-07T10:19:08;23.10;87.50
5705;DHT22;2877;48.238;11.160;2023-05-07T10:21:37;23.20;89.20
5705;DHT22;2877;48.238;11.160;2023-05-07T10:24:10;23.40;86.60
5705;DHT22;2877;48.238;11.160;2023-05-07T10:26:44;23.20;86.50
5705;DHT22;2877;48.238;11.160;2023-05-07T10:32:48;23.80;84.00
5705;DHT22;2877;48.238;11.160;2023-05-07T10:35:18;23.80;81.80
5705;DHT22;2877;48.238;11.160;2023-05-07T10:37:45;24.00;82.40
5705;DHT22;2877;48.238;11.160;2023-05-07T10:40:12;23.90;81.30
5705;DHT22;2877;48.238;11.160;2023-05-07T10:42:37;23.70;84.50
5705;DHT22;2877;48.238;11.160;2023-05-07T10:45:13;23.80;81.50
5705;DHT22;2877;48.238;11.160;2023-05-07T10:48:05;24.00;83.70
5705;DHT22;2877;48.238;11.160;2023-05-07T10:50:31;24.20;83.00
5705;DHT22;2877;48.238;11.160;2023-05-07T10:55:48;24.40;82.80
5705;DHT22;2877;48.238;11.160;2023-05-07T10:58:26;24.50;80.80
5705;DHT22;2877;48.238;11.160;2023-05-07T11:01:02;24.80;81.30
5705;DHT22;2877;48.238;11.160;2023-05-07T11:03:28;25.10;76.80
5705;DHT22;2877;48.238;11.160;2023-05-07T11:06:23;25.20;75.60
5705;DHT22;2877;48.238;11.160;2023-05-07T11:11:17;26.00;71.00
5705;DHT22;2877;48.238;11.160;2023-05-07T11:13:47;25.80;67.80
5705;DHT22;2877;48.238;11.160;2023-05-07T11:16:23;25.80;67.90
5705;DHT22;2877;48.238;11.160;2023-05-07T11:18:51;25.70;68.50
5705;DHT22;2877;48.238;11.160;2023-05-07T11:21:40;25.60;69.60
5705;DHT22;2877;48.238;11.160;2023-05-07T11:24:07;25.80;68.60
5705;DHT22;2877;48.238;11.160;2023-05-07T11:26:45;25.50;68.50
5705;DHT22;2877;48.238;11.160;2023-05-07T11:29:15;25.60;67.30
5705;DHT22;2877;48.238;11.160;2023-05-07T11:31:41;25.60;65.40
5705;DHT22;2877;48.238;11.160;2023-05-07T11:34:08;25.80;66.90
5705;DHT22;2877;48.238;11.160;2023-05-07T11:36:33;26.10;68.10
5705;DHT22;2877;48.238;11.160;2023-05-07T11:38:59;26.40;65.40
5705;DHT22;2877;48.238;11.160;2023-05-07T11:41:35;26.40;67.00
5705;DHT22;2877;48.238;11.160;2023-05-07T11:44:02;26.40;66.10
5705;DHT22;2877;48.238;11.160;2023-05-07T11:46:28;26.30;65.50
5705;DHT22;2877;48.238;11.160;2023-05-07T11:48:54;26.30;65.00
5705;DHT22;2877;48.238;11.160;2023-05-07T11:51:24;26.40;65.40
5705;DHT22;2877;48.238;11.160;2023-05-07T11:53:51;26.40;63.90
5705;DHT22;2877;48.238;11.160;2023-05-07T11:56:18;26.40;65.00
5705;DHT22;2877;48.238;11.160;2023-05-07T11:58:45;26.50;65.00
5705;DHT22;2877;48.238;11.160;2023-05-07T12:01:12;26.60;65.00
5705;DHT22;2877;48.238;11.160;2023-05-07T12:03:40;26.70;65.40
5705;DHT22;2877;48.238;11.160;2023-05-07T12:06:08;26.40;64.50
5705;DHT22;2877;48.238;11.160;2023-05-07T12:08:37;26.20;65.60
5705;DHT22;2877;48.238;11.160;2023-05-07T12:11:03;26.00;65.60
5705;DHT22;2877;48.238;11.160;2023-05-07T12:13:32;25.80;67.50
5705;DHT22;2877;48.238;11.160;2023-05-07T12:15:57;25.90;66.80
5705;DHT22;2877;48.238;11.160;2023-05-07T12:18:23;26.00;64.10
5705;DHT22;2877;48.238;11.160;2023-05-07T12:20:49;26.00;65.90
5705;DHT22;2877;48.238;11.160;2023-05-07T12:23:15;26.10;65.40
5705;DHT22;2877;48.238;11.160;2023-05-07T12:25:42;26.10;67.10
5705;DHT22;2877;48.238;11.160;2023-05-07T12:28:16;25.90;65.00
5705;DHT22;2877;48.238;11.160;2023-05-07T12:30:43;25.90;64.00
5705;DHT22;2877;48.238;11.160;2023-05-07T12:33:09;25.70;65.40
5705;DHT22;2877;48.238;11.160;2023-05-07T12:35:40;25.60;63.50
5705;DHT22;2877;48.238;11.160;2023-05-07T12:38:10;25.60;65.90
5705;DHT22;2877;48.238;11.160;2023-05-07T12:40:38;25.70;66.60
5705;DHT22;2877;48.238;11.160;2023-05-07T12:43:03;25.80;63.80
5705;DHT22;2877;48.238;11.160;2023-05-07T12:45:29;25.90;65.00
5705;DHT22;2877;48.238;11.160;2023-05-07T12:47:55;25.80;64.00
5705;DHT22;2877;48.238;11.160;2023-05-07T12:50:21;25.90;65.40
5705;DHT22;2877;48.238;11.160;2023-05-07T12:52:47;26.10;64.30
5705;DHT22;2877;48.238;11.160;2023-05-07T12:55:17;26.10;63.10
5705;DHT22;2877;48.238;11.160;2023-05-07T12:57:45;26.40;61.00
5705;DHT22;2877;48.238;11.160;2023-05-07T13:00:13;26.70;59.90
5705;DHT22;2877;48.238;11.160;2023-05-07T13:02:40;27.00;59.70
5705;DHT22;2877;48.238;11.160;2023-05-07T13:05:06;27.20;60.80
5705;DHT22;2877;48.238;11.160;2023-05-07T13:07:32;27.20;60.40
5705;DHT22;2877;48.238;11.160;2023-05-07T13:09:58;27.00;59.20
5705;DHT22;2877;48.238;11.160;2023-05-07T13:12:23;27.00;58.80
5705;DHT22;2877;48.238;11.160;2023-05-07T13:14:49;26.90;60.10
5705;DHT22;2877;48.238;11.160;2023-05-07T13:17:14;26.90;60.20
5705;DHT22;2877;48.238;11.160;2023-05-07T13:19:40;26.60;62.50
5705;DHT22;2877;48.238;11.160;2023-05-07T13:22:06;26.20;62.30
5705;DHT22;2877;48.238;11.160;2023-05-07T13:24:31;26.10;62.40
5705;DHT22;2877;48.238;11.160;2023-05-07T13:26:57;26.20;63.90
5705;DHT22;2877;48.238;11.160;2023-05-07T13:29:22;26.10;61.60
5705;DHT22;2877;48.238;11.160;2023-05-07T13:31:58;25.90;63.00
5705;DHT22;2877;48.238;11.160;2023-05-07T13:34:24;25.80;63.40
5705;DHT22;2877;48.238;11.160;2023-05-07T13:36:49;25.50;62.10
5705;DHT22;2877;48.238;11.160;2023-05-07T13:39:15;25.40;63.50
5705;DHT22;2877;48.238;11.160;2023-05-07T13:41:41;25.20;64.90
5705;DHT22;2877;48.238;11.160;2023-05-07T13:44:06;25.20;64.70
5705;DHT22;2877;48.238;11.160;2023-05-07T13:46:32;25.00;66.20
5705;DHT22;2877;48.238;11.160;2023-05-07T13:48:57;24.80;66.40
5705;DHT22;2877;48.238;11.160;2023-05-07T13:51:23;24.60;65.40
5705;DHT22;2877;48.238;11.160;2023-05-07T13:53:49;24.60;68.60
5705;DHT22;2877;48.238;11.160;2023-05-07T13:56:14;24.60;66.70
5705;DHT22;2877;48.238;11.160;2023-05-07T13:58:40;24.30;68.60
5705;DHT22;2877;48.238;11.160;2023-05-07T14:01:06;24.10;69.00
5705;DHT22;2877;48.238;11.160;2023-05-07T14:03:31;23.90;69.40
5705;DHT22;2877;48.238;11.160;2023-05-07T14:05:59;23.80;69.80
5705;DHT22;2877;48.238;11.160;2023-05-07T14:08:26;23.80;68.70
5705;DHT22;2877;48.238;11.160;2023-05-07T14:10:52;23.80;70.30
5705;DHT22;2877;48.238;11.160;2023-05-07T14:13:18;23.90;71.70
5705;DHT22;2877;48.238;11.160;2023-05-07T14:15:43;24.00;69.20
5705;DHT22;2877;48.238;11.160;2023-05-07T14:18:12;24.00;67.50
5705;DHT22;2877;48.238;11.160;2023-05-07T14:20:38;24.00;69.10
5705;DHT22;2877;48.238;11.160;2023-05-07T14:23:03;24.10;68.50
5705;DHT22;2877;48.238;11.160;2023-05-07T14:25:29;24.10;69.80
5705;DHT22;2877;48.238;11.160;2023-05-07T14:27:56;24.10;69.50
5705;DHT22;2877;48.238;11.160;2023-05-07T14:30:21;24.00;70.00
5705;DHT22;2877;48.238;11.160;2023-05-07T14:32:49;23.90;69.00
5705;DHT22;2877;48.238;11.160;2023-05-07T14:35:15;23.80;70.10
5705;DHT22;2877;48.238;11.160;2023-05-07T14:37:41;23.80;71.70
5705;DHT22;2877;48.238;11.160;2023-05-07T14:40:07;23.80;72.20
5705;DHT22;2877;48.238;11.160;2023-05-07T14:42:33;23.80;70.80
5705;DHT22;2877;48.238;11.160;2023-05-07T14:44:58;23.90;71.50
5705;DHT22;2877;48.238;11.160;2023-05-07T14:47:23;24.00;71.50
5705;DHT22;2877;48.238;11.160;2023-05-07T14:49:49;24.40;72.60
5705;DHT22;2877;48.238;11.160;2023-05-07T14:52:15;24.70;72.30
5705;DHT22;2877;48.238;11.160;2023-05-07T14:54:40;24.90;71.90
5705;DHT22;2877;48.238;11.160;2023-05-07T14:57:08;24.90;70.50
5705;DHT22;2877;48.238;11.160;2023-05-07T14:59:33;24.70;70.60
5705;DHT22;2877;48.238;11.160;2023-05-07T15:01:59;24.40;69.90
5705;DHT22;2877;48.238;11.160;2023-05-07T15:04:25;24.30;70.10
5705;DHT22;2877;48.238;11.160;2023-05-07T15:06:50;24.20;70.80
5705;DHT22;2877;48.238;11.160;2023-05-07T15:09:17;24.00;70.60
5705;DHT22;2877;48.238;11.160;2023-05-07T15:11:42;23.80;70.30
5705;DHT22;2877;48.238;11.160;2023-05-07T15:14:08;23.80;70.70
5705;DHT22;2877;48.238;11.160;2023-05-07T15:16:34;23.70;71.20
5705;DHT22;2877;48.238;11.160;2023-05-07T15:18:59;23.50;72.20
5705;DHT22;2877;48.238;11.160;2023-05-07T15:21:25;23.60;72.70
5705;DHT22;2877;48.238;11.160;2023-05-07T15:23:52;23.40;71.80
5705;DHT22;2877;48.238;11.160;2023-05-07T15:26:17;23.20;72.30
5705;DHT22;2877;48.238;11.160;2023-05-07T15:28:43;23.10;71.60
5705;DHT22;2877;48.238;11.160;2023-05-07T15:31:08;22.90;72.20
5705;DHT22;2877;48.238;11.160;2023-05-07T15:33:34;22.80;73.60
5705;DHT22;2877;48.238;11.160;2023-05-07T15:36:00;22.80;74.00
5705;DHT22;2877;48.238;11.160;2023-05-07T15:38:26;22.70;74.00
5705;DHT22;2877;48.238;11.160;2023-05-07T15:40:52;22.60;73.40
5705;DHT22;2877;48.238;11.160;2023-05-07T15:43:18;22.50;72.90
5705;DHT22;2877;48.238;11.160;2023-05-07T15:45:43;22.30;73.50
5705;DHT22;2877;48.238;11.160;2023-05-07T15:48:10;22.30;75.60
5705;DHT22;2877;48.238;11.160;2023-05-07T15:50:36;22.40;75.40
5705;DHT22;2877;48.238;11.160;2023-05-07T15:53:02;22.40;75.90